Time,TemperatureF,DewpointF,PressureIn,WindDirection,WindDirectionDegrees,WindSpeedMPH,WindSpeedGustMPH,Humidity,HourlyPrecipIn,Conditions,Clouds,dailyrainin,SoftwareType,DateUTC
2013-01-06 00:01:00,41.2,39.6,29.94,NE,45,3.2,-999.0,94,-99.99,,,0.00,Acu-Link.com,2013-01-06 08:01:00,
2013-01-06 00:16:00,41.2,39.6,29.93,SSW,202,1.7,-999.0,94,-99.99,,,0.00,Acu-Link.com,2013-01-06 08:16:00,
2013-01-06 00:32:00,41.2,39.6,29.92,West,270,1.7,-999.0,94,-99.99,,,0.00,Acu-Link.com,2013-01-06 08:32:00,
2013-01-06 00:47:00,41.0,39.4,29.92,SW,225,1.7,-999.0,94,-99.99,,,0.00,Acu-Link.com,2013-01-06 08:47:00,
2013-01-06 01:09:00,40.8,39.2,29.92,West,270,2.2,-999.0,94,-99.99,,,0.00,Acu-Link.com,2013-01-06 09:09:00,
2013-01-06 01:24:00,40.6,39.0,29.93,SSW,202,2.7,-999.0,94,-99.99,,,0.00,Acu-Link.com,2013-01-06 09:24:00,
2013-01-06 01:39:00,40.6,39.0,29.94,ENE,67,4.7,-999.0,94,-99.99,,,0.00,Acu-Link.com,2013-01-06 09:39:00,
2013-01-06 01:54:00,40.6,39.0,29.94,South,180,2.2,-999.0,94,-99.99,,,0.00,Acu-Link.com,2013-01-06 09:54:00,
2013-01-06 02:09:00,40.6,39.0,29.94,SSW,202,1.7,-999.0,94,-99.99,,,0.00,Acu-Link.com,2013-01-06 10:09:00,
2013-01-06 02:25:00,40.6,39.0,29.95,ENE,67,2.2,-999.0,94,-99.99,,,0.00,Acu-Link.com,2013-01-06 10:25:00,
2013-01-06 02:40:00,40.6,39.0,29.95,West,270,0.0,-999.0,94,-99.99,,,0.00,Acu-Link.com,2013-01-06 10:40:00,
2013-01-06 02:55:00,40.5,38.9,29.95,West,270,2.7,-999.0,94,-99.99,,,0.00,Acu-Link.com,2013-01-06 10:55:00,
2013-01-06 03:10:00,40.5,38.9,29.95,East,90,2.7,-999.0,94,-99.99,,,0.00,Acu-Link.com,2013-01-06 11:10:00,
2013-01-06 03:25:00,40.3,38.7,29.96,South,180,0.0,-999.0,94,-99.99,,,0.00,Acu-Link.com,2013-01-06 11:25:00,
2013-01-06 03:41:00,40.3,38.7,29.95,NE,45,3.2,-999.0,94,-99.99,,,0.00,Acu-Link.com,2013-01-06 11:41:00,
2013-01-06 03:56:00,40.3,38.7,29.95,WNW,292,2.2,-999.0,94,-99.99,,,0.00,Acu-Link.com,2013-01-06 11:56:00,
2013-01-06 04:11:00,40.1,38.5,29.96,East,90,1.7,-999.0,94,-99.99,,,0.00,Acu-Link.com,2013-01-06 12:11:00,
2013-01-06 04:26:00,39.9,38.3,29.96,SSW,202,0.0,-999.0,94,-99.99,,,0.00,Acu-Link.com,2013-01-06 12:26:00,
2013-01-06 04:42:00,39.9,38.3,29.97,West,270,3.7,-999.0,94,-99.99,,,0.00,Acu-Link.com,2013-01-06 12:42:00,
2013-01-06 04:57:00,39.9,38.3,29.97,WSW,247,3.2,-999.0,94,-99.99,,,0.00,Acu-Link.com,2013-01-06 12:57:00,
2013-01-06 05:12:00,40.1,38.5,29.96,WSW,247,4.2,-999.0,94,-99.99,,,0.00,Acu-Link.com,2013-01-06 13:12:00,
2013-01-06 05:27:00,40.1,38.5,29.96,SSW,202,3.2,-999.0,94,-99.99,,,0.00,Acu-Link.com,2013-01-06 13:27:00,
2013-01-06 05:42:00,39.9,38.3,29.96,West,270,2.2,-999.0,94,-99.99,,,0.00,Acu-Link.com,2013-01-06 13:42:00,
2013-01-06 05:58:00,39.7,38.1,29.97,SSW,202,1.7,-999.0,94,-99.99,,,0.00,Acu-Link.com,2013-01-06 13:58:00,
2013-01-06 06:13:00,39.9,38.3,29.97,South,180,2.2,-999.0,94,-99.99,,,0.00,Acu-Link.com,2013-01-06 14:13:00,
2013-01-06 06:28:00,39.9,38.3,29.97,NNE,22,1.7,-999.0,94,-99.99,,,0.00,Acu-Link.com,2013-01-06 14:28:00,
2013-01-06 06:44:00,39.7,38.1,29.97,SSW,202,2.7,-999.0,94,-99.99,,,0.00,Acu-Link.com,2013-01-06 14:44:00,
2013-01-06 06:59:00,40.3,38.7,29.96,NNE,22,1.7,-999.0,94,-99.99,,,0.00,Acu-Link.com,2013-01-06 14:59:00,
2013-01-06 07:14:00,40.1,38.5,29.97,West,270,5.3,-999.0,94,-99.99,,,0.00,Acu-Link.com,2013-01-06 15:14:00,
2013-01-06 07:29:00,39.9,38.3,29.96,West,270,0.0,-999.0,94,-99.99,,,0.00,Acu-Link.com,2013-01-06 15:29:00,
2013-01-06 07:45:00,39.7,38.1,29.97,West,270,4.2,-999.0,94,-99.99,,,0.00,Acu-Link.com,2013-01-06 15:45:00,
2013-01-06 08:00:00,39.2,37.6,29.98,WSW,247,4.7,-999.0,94,-99.99,,,0.00,Acu-Link.com,2013-01-06 16:00:00,
2013-01-06 08:15:00,39.6,38.0,30.00,WSW,247,6.3,-999.0,94,-99.99,,,0.00,Acu-Link.com,2013-01-06 16:15:00,
2013-01-06 08:30:00,39.6,38.0,30.01,WSW,247,5.8,-999.0,94,-99.99,,,0.00,Acu-Link.com,2013-01-06 16:30:00,
2013-01-06 08:46:00,39.9,38.3,30.02,WSW,247,6.3,-999.0,94,-99.99,,,0.00,Acu-Link.com,2013-01-06 16:46:00,
2013-01-06 09:01:00,40.8,39.2,30.02,WSW,247,3.2,-999.0,94,-99.99,,,0.00,Acu-Link.com,2013-01-06 17:01:00,
2013-01-06 09:16:00,42.3,40.7,30.02,ESE,112,2.2,-999.0,94,-99.99,,,0.00,Acu-Link.com,2013-01-06 17:16:00,
2013-01-06 09:31:00,45.1,43.8,30.03,West,270,0.0,-999.0,95,-99.99,,,0.00,Acu-Link.com,2013-01-06 17:31:00,
2013-01-06 09:47:00,47.7,42.5,30.03,SSE,157,5.3,-999.0,82,-99.99,,,0.00,Acu-Link.com,2013-01-06 17:47:00,
2013-01-06 10:02:00,47.8,42.9,30.03,WNW,292,2.2,-999.0,83,-99.99,,,0.00,Acu-Link.com,2013-01-06 18:02:00,
2013-01-06 10:17:00,50.7,43.4,30.03,ESE,112,4.7,-999.0,76,-99.99,,,0.00,Acu-Link.com,2013-01-06 18:17:00,
2013-01-06 10:32:00,48.7,41.8,30.03,West,270,3.7,-999.0,77,-99.99,,,0.00,Acu-Link.com,2013-01-06 18:32:00,
2013-01-06 10:48:00,47.8,41.9,30.03,West,270,2.7,-999.0,80,-99.99,,,0.00,Acu-Link.com,2013-01-06 18:48:00,
2013-01-06 11:03:00,47.1,42.2,30.02,SW,225,4.2,-999.0,83,-99.99,,,0.00,Acu-Link.com,2013-01-06 19:03:00,
2013-01-06 11:18:00,46.8,42.5,30.02,West,270,6.3,-999.0,85,-99.99,,,0.00,Acu-Link.com,2013-01-06 19:18:00,
2013-01-06 11:33:00,46.6,42.3,30.02,West,270,6.8,-999.0,85,-99.99,,,0.00,Acu-Link.com,2013-01-06 19:33:00,
2013-01-06 11:48:00,47.1,42.8,30.01,West,270,4.2,-999.0,85,-99.99,,,0.00,Acu-Link.com,2013-01-06 19:48:00,
2013-01-06 12:19:00,56.5,44.9,30.00,SSE,157,4.7,-999.0,65,-99.99,,,0.00,Acu-Link.com,2013-01-06 20:19:00,
2013-01-06 12:34:00,54.7,43.6,30.00,West,270,6.3,-999.0,66,-99.99,,,0.00,Acu-Link.com,2013-01-06 20:34:00,
2013-01-06 12:50:00,48.6,41.0,30.00,West,270,6.8,-999.0,75,-99.99,,,0.00,Acu-Link.com,2013-01-06 20:50:00,
2013-01-06 13:05:00,47.7,40.5,30.00,West,270,2.7,-999.0,76,-99.99,,,0.00,Acu-Link.com,2013-01-06 21:05:00,
2013-01-06 13:20:00,48.0,40.5,30.00,West,270,2.7,-999.0,75,-99.99,,,0.00,Acu-Link.com,2013-01-06 21:20:00,
2013-01-06 13:35:00,48.6,41.7,29.99,WSW,247,2.7,-999.0,77,-99.99,,,0.00,Acu-Link.com,2013-01-06 21:35:00,
2013-01-06 13:50:00,50.7,42.0,29.99,SW,225,4.2,-999.0,72,-99.99,,,0.00,Acu-Link.com,2013-01-06 21:50:00,
2013-01-06 14:06:00,52.9,42.6,29.98,West,270,5.3,-999.0,68,-99.99,,,0.00,Acu-Link.com,2013-01-06 22:06:00,
2013-01-06 14:21:00,52.9,41.9,29.99,West,270,3.7,-999.0,66,-99.99,,,0.00,Acu-Link.com,2013-01-06 22:21:00,
2013-01-06 14:36:00,57.4,42.3,29.99,NW,315,2.7,-999.0,57,-99.99,,,0.00,Acu-Link.com,2013-01-06 22:36:00,
2013-01-06 14:51:00,52.7,41.3,29.99,SSW,202,5.3,-999.0,65,-99.99,,,0.00,Acu-Link.com,2013-01-06 22:51:00,
2013-01-06 15:06:00,50.7,41.6,29.99,SSW,202,4.7,-999.0,71,-99.99,,,0.00,Acu-Link.com,2013-01-06 23:06:00,
2013-01-06 15:22:00,49.1,41.5,30.00,SSE,157,5.3,-999.0,75,-99.99,,,0.00,Acu-Link.com,2013-01-06 23:22:00,
2013-01-06 15:37:00,48.2,41.3,30.00,WNW,292,4.7,-999.0,77,-99.99,,,0.00,Acu-Link.com,2013-01-06 23:37:00,
2013-01-06 15:52:00,48.2,42.0,29.99,SSW,202,4.2,-999.0,79,-99.99,,,0.00,Acu-Link.com,2013-01-06 23:52:00,
2013-01-06 16:08:00,49.1,42.2,30.00,NNW,337,4.2,-999.0,77,-99.99,,,0.00,Acu-Link.com,2013-01-07 00:08:00,
2013-01-06 16:23:00,48.4,41.9,30.01,WNW,292,7.3,-999.0,78,-99.99,,,0.00,Acu-Link.com,2013-01-07 00:23:00,
2013-01-06 16:38:00,49.1,41.5,30.00,SW,225,5.3,-999.0,75,-99.99,,,0.00,Acu-Link.com,2013-01-07 00:38:00,
2013-01-06 16:53:00,48.7,41.5,29.99,WSW,247,4.7,-999.0,76,-99.99,,,0.00,Acu-Link.com,2013-01-07 00:53:00,
2013-01-06 17:08:00,47.1,41.3,29.99,West,270,4.2,-999.0,80,-99.99,,,0.00,Acu-Link.com,2013-01-07 01:08:00,
2013-01-06 17:24:00,46.6,41.1,29.99,NW,315,5.3,-999.0,81,-99.99,,,0.00,Acu-Link.com,2013-01-07 01:24:00,
2013-01-06 17:39:00,46.2,41.0,29.99,SW,225,4.2,-999.0,82,-99.99,,,0.00,Acu-Link.com,2013-01-07 01:39:00,
2013-01-06 17:54:00,45.7,41.1,29.99,WSW,247,3.7,-999.0,84,-99.99,,,0.00,Acu-Link.com,2013-01-07 01:54:00,
2013-01-06 18:09:00,45.1,41.2,30.00,WSW,247,3.7,-999.0,86,-99.99,,,0.00,Acu-Link.com,2013-01-07 02:09:00,
2013-01-06 18:24:00,44.8,41.2,30.00,WSW,247,3.7,-999.0,87,-99.99,,,0.00,Acu-Link.com,2013-01-07 02:24:00,
2013-01-06 18:40:00,45.0,41.4,30.00,West,270,4.2,-999.0,87,-99.99,,,0.00,Acu-Link.com,2013-01-07 02:40:00,
2013-01-06 18:55:00,44.8,41.5,30.01,West,270,3.7,-999.0,88,-99.99,,,0.00,Acu-Link.com,2013-01-07 02:55:00,
2013-01-06 19:11:00,44.2,41.2,30.02,WSW,247,4.7,-999.0,89,-99.99,,,0.00,Acu-Link.com,2013-01-07 03:11:00,
2013-01-06 19:26:00,44.2,41.2,30.02,West,270,6.3,-999.0,89,-99.99,,,0.00,Acu-Link.com,2013-01-07 03:26:00,
2013-01-06 19:41:00,43.9,40.9,30.03,NW,315,5.3,-999.0,89,-99.99,,,0.00,Acu-Link.com,2013-01-07 03:41:00,
2013-01-06 19:57:00,43.9,40.9,30.03,WNW,292,6.8,-999.0,89,-99.99,,,0.00,Acu-Link.com,2013-01-07 03:57:00,
2013-01-06 20:12:00,43.7,40.7,30.03,West,270,5.8,-999.0,89,-99.99,,,0.00,Acu-Link.com,2013-01-07 04:12:00,
2013-01-06 20:27:00,43.3,40.9,30.03,West,270,2.7,-999.0,91,-99.99,,,0.00,Acu-Link.com,2013-01-07 04:27:00,
2013-01-06 20:42:00,42.8,40.6,30.03,WSW,247,4.2,-999.0,92,-99.99,,,0.00,Acu-Link.com,2013-01-07 04:42:00,
2013-01-06 20:58:00,42.8,40.6,30.04,West,270,4.7,-999.0,92,-99.99,,,0.00,Acu-Link.com,2013-01-07 04:58:00,
2013-01-06 21:13:00,42.3,40.4,30.03,West,270,4.7,-999.0,93,-99.99,,,0.00,Acu-Link.com,2013-01-07 05:13:00,
2013-01-06 21:28:00,41.7,40.4,30.03,WNW,292,8.3,-999.0,95,-99.99,,,0.00,Acu-Link.com,2013-01-07 05:28:00,
2013-01-06 21:43:00,41.7,40.4,30.03,West,270,7.8,-999.0,95,-99.99,,,0.00,Acu-Link.com,2013-01-07 05:43:00,
2013-01-06 21:58:00,41.2,40.1,30.03,West,270,5.8,-999.0,96,-99.99,,,0.00,Acu-Link.com,2013-01-07 05:58:00,
2013-01-06 22:14:00,41.2,40.1,30.03,West,270,4.7,-999.0,96,-99.99,,,0.00,Acu-Link.com,2013-01-07 06:14:00,
2013-01-06 22:29:00,41.2,40.1,30.04,West,270,6.8,-999.0,96,-99.99,,,0.00,Acu-Link.com,2013-01-07 06:29:00,
2013-01-06 22:44:00,40.8,39.7,30.04,West,270,7.3,-999.0,96,-99.99,,,0.00,Acu-Link.com,2013-01-07 06:44:00,
2013-01-06 23:00:00,41.0,40.2,30.04,West,270,5.3,-999.0,97,-99.99,,,0.00,Acu-Link.com,2013-01-07 07:00:00,
2013-01-06 23:15:00,41.0,39.9,30.04,SSW,202,4.7,-999.0,96,-99.99,,,0.00,Acu-Link.com,2013-01-07 07:15:00,
2013-01-06 23:30:00,40.8,39.7,30.04,West,270,5.3,-999.0,96,-99.99,,,0.00,Acu-Link.com,2013-01-07 07:30:00,
2013-01-06 23:45:00,40.6,39.8,30.05,West,270,6.8,-999.0,97,-99.99,,,0.00,Acu-Link.com,2013-01-07 07:45:00,